Time,TemperatureF,DewpointF,PressureIn,WindDirection,WindDirectionDegrees,WindSpeedMPH,WindSpeedGustMPH,Humidity,HourlyPrecipIn,Conditions,Clouds,dailyrainin,SoftwareType,DateUTC
2013-02-06 00:01:00,12.0,10.0,-100.00,WNW,290,3.0,6.0,90,0.00,,,0.00,,2013-02-06 09:01:00,
2013-02-06 00:11:00,12.0,10.0,-100.00,WNW,290,3.0,6.0,90,0.00,,,0.00,,2013-02-06 09:11:00,
2013-02-06 00:21:00,10.0,8.0,-100.00,NW,325,4.0,5.0,90,0.00,,,0.00,,2013-02-06 09:21:00,
2013-02-06 00:31:00,10.0,8.0,-100.00,NW,325,4.0,5.0,90,0.00,,,0.00,,2013-02-06 09:31:00,
2013-02-06 00:41:00,10.0,8.0,-100.00,NW,325,4.0,5.0,90,0.00,,,0.00,,2013-02-06 09:41:00,
2013-02-06 00:52:00,9.0,7.0,-100.00,NW,320,4.0,6.0,89,0.00,,,0.00,,2013-02-06 09:52:00,
2013-02-06 01:01:00,9.0,7.0,-100.00,NW,320,4.0,6.0,89,0.00,,,0.00,,2013-02-06 10:01:00,
2013-02-06 01:11:00,9.0,7.0,-100.00,NW,320,4.0,6.0,89,0.00,,,0.00,,2013-02-06 10:11:00,
2013-02-06 01:21:00,10.0,8.0,-100.00,NNW,330,4.0,6.0,89,0.00,,,0.00,,2013-02-06 10:21:00,
2013-02-06 01:31:00,10.0,8.0,-100.00,NNW,330,4.0,6.0,89,0.00,,,0.00,,2013-02-06 10:31:00,
2013-02-06 01:41:00,10.0,8.0,-100.00,NNW,330,4.0,6.0,89,0.00,,,0.00,,2013-02-06 10:41:00,
2013-02-06 02:22:00,8.0,6.0,-100.00,NW,325,6.0,7.0,89,0.00,,,0.00,,2013-02-06 11:22:00,
2013-02-06 02:32:00,8.0,6.0,-100.00,NW,325,6.0,7.0,89,0.00,,,0.00,,2013-02-06 11:32:00,
2013-02-06 02:42:00,8.0,6.0,-100.00,NW,325,6.0,7.0,89,0.00,,,0.00,,2013-02-06 11:42:00,
2013-02-06 02:53:00,8.0,5.0,-100.00,NW,305,4.0,6.0,89,0.00,,,0.00,,2013-02-06 11:53:00,
2013-02-06 03:01:00,8.0,5.0,-100.00,NW,305,4.0,6.0,89,0.00,,,0.00,,2013-02-06 12:01:00,
2013-02-06 03:12:00,8.0,5.0,-100.00,NW,305,4.0,6.0,89,0.00,,,0.00,,2013-02-06 12:12:00,
2013-02-06 03:22:00,8.0,5.0,-100.00,NW,305,4.0,6.0,89,0.00,,,0.00,,2013-02-06 12:22:00,
2013-02-06 03:52:00,8.0,5.0,-100.00,NW,320,4.0,6.0,88,0.00,,,0.00,,2013-02-06 12:52:00,
2013-02-06 04:01:00,8.0,5.0,-100.00,NW,320,4.0,6.0,88,0.00,,,0.00,,2013-02-06 13:01:00,
2013-02-06 04:11:00,8.0,5.0,-100.00,NW,320,4.0,6.0,88,0.00,,,0.00,,2013-02-06 13:11:00,
2013-02-06 04:21:00,7.0,4.0,-100.00,NW,325,5.0,6.0,88,0.00,,,0.00,,2013-02-06 13:21:00,
2013-02-06 04:31:00,7.0,4.0,-100.00,NW,325,5.0,6.0,88,0.00,,,0.00,,2013-02-06 13:31:00,
2013-02-06 04:42:00,7.0,4.0,-100.00,NW,325,5.0,6.0,88,0.00,,,0.00,,2013-02-06 13:42:00,
2013-02-06 04:52:00,4.0,1.0,-100.00,NW,320,4.0,6.0,87,0.00,,,0.00,,2013-02-06 13:52:00,
2013-02-06 05:01:00,4.0,1.0,-100.00,NW,320,4.0,6.0,87,0.00,,,0.00,,2013-02-06 14:01:00,
2013-02-06 05:11:00,4.0,1.0,-100.00,NW,320,4.0,6.0,87,0.00,,,0.00,,2013-02-06 14:11:00,
2013-02-06 05:21:00,5.0,2.0,-100.00,NW,315,4.0,4.0,87,0.00,,,0.00,,2013-02-06 14:21:00,
2013-02-06 05:31:00,5.0,2.0,-100.00,NW,315,4.0,4.0,87,0.00,,,0.00,,2013-02-06 14:31:00,
2013-02-06 05:41:00,5.0,2.0,-100.00,NW,315,4.0,4.0,87,0.00,,,0.00,,2013-02-06 14:41:00,
2013-02-06 05:52:00,5.0,2.0,-100.00,North,355,3.0,5.0,87,0.00,,,0.00,,2013-02-06 14:52:00,
2013-02-06 06:01:00,5.0,2.0,-100.00,North,355,3.0,5.0,87,0.00,,,0.00,,2013-02-06 15:01:00,
2013-02-06 06:11:00,5.0,2.0,-100.00,North,355,3.0,5.0,87,0.00,,,0.00,,2013-02-06 15:11:00,
2013-02-06 06:21:00,5.0,2.0,-100.00,North,355,3.0,5.0,87,0.00,,,0.00,,2013-02-06 15:21:00,
2013-02-06 06:52:00,4.0,1.0,-100.00,NW,315,4.0,4.0,87,0.00,,,0.00,,2013-02-06 15:52:00,
2013-02-06 07:01:00,4.0,1.0,-100.00,NW,315,4.0,4.0,87,0.00,,,0.00,,2013-02-06 16:01:00,
2013-02-06 07:11:00,4.0,1.0,-100.00,NW,315,4.0,4.0,87,0.00,,,0.00,,2013-02-06 16:11:00,
2013-02-06 07:21:00,2.0,-1.0,-100.00,NW,305,4.0,4.0,86,0.00,,,0.00,,2013-02-06 16:21:00,
2013-02-06 07:32:00,2.0,-1.0,-100.00,NW,305,4.0,4.0,86,0.00,,,0.00,,2013-02-06 16:32:00,
2013-02-06 07:42:00,2.0,-1.0,-100.00,NW,305,4.0,4.0,86,0.00,,,0.00,,2013-02-06 16:42:00,
2013-02-06 07:52:00,4.0,0.0,-100.00,NW,305,3.0,4.0,86,0.00,,,0.00,,2013-02-06 16:52:00,
2013-02-06 08:01:00,4.0,0.0,-100.00,NW,305,3.0,4.0,86,0.00,,,0.00,,2013-02-06 17:01:00,
2013-02-06 08:11:00,4.0,0.0,-100.00,NW,305,3.0,4.0,86,0.00,,,0.00,,2013-02-06 17:11:00,
2013-02-06 08:21:00,3.0,0.0,-100.00,WNW,300,4.0,4.0,87,0.00,,,0.00,,2013-02-06 17:21:00,
2013-02-06 08:32:00,3.0,0.0,-100.00,WNW,300,4.0,4.0,87,0.00,,,0.00,,2013-02-06 17:32:00,
2013-02-06 08:41:00,3.0,0.0,-100.00,WNW,300,4.0,4.0,87,0.00,,,0.00,,2013-02-06 17:41:00,
2013-02-06 08:52:00,2.0,-2.0,-100.00,NW,320,3.0,4.0,86,0.00,,,0.00,,2013-02-06 17:52:00,
2013-02-06 09:01:00,2.0,-2.0,-100.00,NW,320,3.0,4.0,86,0.00,,,0.00,,2013-02-06 18:01:00,
2013-02-06 09:11:00,2.0,-2.0,-100.00,NW,320,3.0,4.0,86,0.00,,,0.00,,2013-02-06 18:11:00,
2013-02-06 09:22:00,3.0,0.0,-100.00,NNW,330,2.0,4.0,86,0.00,,,0.00,,2013-02-06 18:22:00,
2013-02-06 09:32:00,3.0,0.0,-100.00,NNW,330,2.0,4.0,86,0.00,,,0.00,,2013-02-06 18:32:00,
2013-02-06 09:41:00,3.0,0.0,-100.00,NNW,330,2.0,4.0,86,0.00,,,0.00,,2013-02-06 18:41:00,
2013-02-06 09:52:00,3.0,0.0,-100.00,NW,320,2.0,3.0,86,0.00,,,0.00,,2013-02-06 18:52:00,
2013-02-06 10:01:00,3.0,0.0,-100.00,NW,320,2.0,3.0,86,0.00,,,0.00,,2013-02-06 19:01:00,
2013-02-06 10:11:00,3.0,0.0,-100.00,NW,320,2.0,3.0,86,0.00,,,0.00,,2013-02-06 19:11:00,
2013-02-06 10:21:00,2.0,-1.0,-100.00,NNW,330,1.0,2.0,86,0.00,,,0.00,,2013-02-06 19:21:00,
2013-02-06 10:31:00,2.0,-1.0,-100.00,NNW,330,1.0,2.0,86,0.00,,,0.00,,2013-02-06 19:31:00,
2013-02-06 10:41:00,2.0,-1.0,-100.00,NNW,330,1.0,2.0,86,0.00,,,0.00,,2013-02-06 19:41:00,
2013-02-06 10:52:00,4.0,0.0,-100.00,NW,315,2.0,2.0,86,0.00,,,0.00,,2013-02-06 19:52:00,
2013-02-06 11:01:00,4.0,0.0,-100.00,NW,315,2.0,2.0,86,0.00,,,0.00,,2013-02-06 20:01:00,
2013-02-06 11:11:00,4.0,0.0,-100.00,NW,315,2.0,2.0,86,0.00,,,0.00,,2013-02-06 20:11:00,
2013-02-06 11:21:00,4.0,1.0,-100.00,NNW,345,1.0,2.0,86,0.00,,,0.00,,2013-02-06 20:21:00,
2013-02-06 11:31:00,4.0,1.0,-100.00,NNW,345,1.0,2.0,86,0.00,,,0.00,,2013-02-06 20:31:00,
2013-02-06 11:41:00,4.0,1.0,-100.00,NNW,345,1.0,2.0,86,0.00,,,0.00,,2013-02-06 20:41:00,
2013-02-06 11:52:00,2.0,-1.0,-100.00,WNW,290,1.0,1.0,86,0.00,,,0.00,,2013-02-06 20:52:00,
2013-02-06 12:01:00,2.0,-1.0,-100.00,WNW,290,1.0,1.0,86,0.00,,,0.00,,2013-02-06 21:01:00,
2013-02-06 12:11:00,2.0,-1.0,-100.00,WNW,290,1.0,1.0,86,0.00,,,0.00,,2013-02-06 21:11:00,
2013-02-06 12:21:00,2.0,-1.0,-100.00,WNW,300,1.0,1.0,86,0.00,,,0.00,,2013-02-06 21:21:00,
2013-02-06 12:32:00,2.0,-1.0,-100.00,WNW,300,1.0,1.0,86,0.00,,,0.00,,2013-02-06 21:32:00,
2013-02-06 12:41:00,2.0,-1.0,-100.00,WNW,300,1.0,1.0,86,0.00,,,0.00,,2013-02-06 21:41:00,
2013-02-06 12:52:00,3.0,0.0,-100.00,WNW,290,0.0,1.0,86,0.00,,,0.00,,2013-02-06 21:52:00,
2013-02-06 13:01:00,3.0,0.0,-100.00,WNW,290,0.0,1.0,86,0.00,,,0.00,,2013-02-06 22:01:00,
2013-02-06 13:11:00,3.0,0.0,-100.00,WNW,290,0.0,1.0,86,0.00,,,0.00,,2013-02-06 22:11:00,
2013-02-06 13:21:00,5.0,2.0,-100.00,WNW,290,0.0,0.0,86,0.00,,,0.00,,2013-02-06 22:21:00,
2013-02-06 13:31:00,5.0,2.0,-100.00,WNW,290,0.0,0.0,86,0.00,,,0.00,,2013-02-06 22:31:00,
2013-02-06 13:41:00,5.0,2.0,-100.00,WNW,290,0.0,0.0,86,0.00,,,0.00,,2013-02-06 22:41:00,
2013-02-06 13:52:00,3.0,0.0,-100.00,NNW,335,1.0,1.0,86,0.00,,,0.00,,2013-02-06 22:52:00,
2013-02-06 14:01:00,3.0,0.0,-100.00,NNW,335,1.0,1.0,86,0.00,,,0.00,,2013-02-06 23:01:00,
2013-02-06 14:11:00,3.0,0.0,-100.00,NNW,335,1.0,1.0,86,0.00,,,0.00,,2013-02-06 23:11:00,
2013-02-06 14:21:00,3.0,0.0,-100.00,NW,310,1.0,2.0,86,0.00,,,0.00,,2013-02-06 23:21:00,
2013-02-06 14:31:00,3.0,0.0,-100.00,NW,310,1.0,2.0,86,0.00,,,0.00,,2013-02-06 23:31:00,
2013-02-06 14:41:00,3.0,0.0,-100.00,NW,310,1.0,2.0,86,0.00,,,0.00,,2013-02-06 23:41:00,
2013-02-06 14:52:00,3.0,0.0,-100.00,NW,315,1.0,2.0,86,0.00,,,0.00,,2013-02-06 23:52:00,
2013-02-06 15:01:00,3.0,0.0,-100.00,NW,315,1.0,2.0,86,0.00,,,0.00,,2013-02-07 00:01:00,
2013-02-06 15:11:00,3.0,0.0,-100.00,NW,315,1.0,2.0,86,0.00,,,0.00,,2013-02-07 00:11:00,
2013-02-06 15:21:00,3.0,0.0,-100.00,NW,305,1.0,2.0,86,0.00,,,0.00,,2013-02-07 00:21:00,
2013-02-06 15:31:00,3.0,0.0,-100.00,NW,305,1.0,2.0,86,0.00,,,0.00,,2013-02-07 00:31:00,
2013-02-06 15:41:00,3.0,0.0,-100.00,NW,305,1.0,2.0,86,0.00,,,0.00,,2013-02-07 00:41:00,
2013-02-06 15:52:00,2.0,-1.0,-100.00,NW,310,2.0,2.0,86,0.00,,,0.00,,2013-02-07 00:52:00,
2013-02-06 16:01:00,2.0,-1.0,-100.00,NW,310,2.0,2.0,86,0.00,,,0.00,,2013-02-07 01:01:00,
2013-02-06 16:11:00,2.0,-1.0,-100.00,NW,310,2.0,2.0,86,0.00,,,0.00,,2013-02-07 01:11:00,
2013-02-06 16:21:00,2.0,-2.0,-100.00,WNW,300,1.0,1.0,86,0.00,,,0.00,,2013-02-07 01:21:00,
2013-02-06 16:31:00,2.0,-2.0,-100.00,WNW,300,1.0,1.0,86,0.00,,,0.00,,2013-02-07 01:31:00,
2013-02-06 16:41:00,2.0,-2.0,-100.00,WNW,300,1.0,1.0,86,0.00,,,0.00,,2013-02-07 01:41:00,
2013-02-06 16:52:00,1.0,-2.0,-100.00,SE,125,2.0,2.0,86,0.00,,,0.00,,2013-02-07 01:52:00,
2013-02-06 17:01:00,1.0,-2.0,-100.00,SE,125,2.0,2.0,86,0.00,,,0.00,,2013-02-07 02:01:00,
2013-02-06 17:11:00,1.0,-2.0,-100.00,SE,125,2.0,2.0,86,0.00,,,0.00,,2013-02-07 02:11:00,
2013-02-06 17:21:00,2.0,-2.0,-100.00,SSE,155,1.0,2.0,86,0.00,,,0.00,,2013-02-07 02:21:00,
2013-02-06 17:31:00,2.0,-2.0,-100.00,SSE,155,1.0,2.0,86,0.00,,,0.00,,2013-02-07 02:31:00,
2013-02-06 17:41:00,2.0,-2.0,-100.00,SSE,155,1.0,2.0,86,0.00,,,0.00,,2013-02-07 02:41:00,
2013-02-06 18:02:00,1.0,-2.0,-100.00,North,350,0.0,1.0,86,0.00,,,0.00,,2013-02-07 03:02:00,
2013-02-06 18:11:00,1.0,-2.0,-100.00,North,350,0.0,1.0,86,0.00,,,0.00,,2013-02-07 03:11:00,
2013-02-06 18:21:00,2.0,-1.0,-100.00,SE,125,0.0,1.0,86,0.00,,,0.00,,2013-02-07 03:21:00,
2013-02-06 18:31:00,2.0,-1.0,-100.00,SE,125,0.0,1.0,86,0.00,,,0.00,,2013-02-07 03:31:00,
2013-02-06 18:41:00,2.0,-1.0,-100.00,SE,125,0.0,1.0,86,0.00,,,0.00,,2013-02-07 03:41:00,
2013-02-06 18:52:00,2.0,-1.0,-100.00,SE,135,2.0,2.0,86,0.00,,,0.00,,2013-02-07 03:52:00,
2013-02-06 19:01:00,2.0,-1.0,-100.00,SE,135,2.0,2.0,86,0.00,,,0.00,,2013-02-07 04:01:00,
2013-02-06 19:11:00,2.0,-1.0,-100.00,SE,135,2.0,2.0,86,0.00,,,0.00,,2013-02-07 04:11:00,
2013-02-06 19:22:00,2.0,-1.0,-100.00,SE,130,2.0,3.0,86,0.00,,,0.00,,2013-02-07 04:22:00,
2013-02-06 19:31:00,2.0,-1.0,-100.00,SE,130,2.0,3.0,86,0.00,,,0.00,,2013-02-07 04:31:00,
2013-02-06 19:41:00,2.0,-1.0,-100.00,SE,130,2.0,3.0,86,0.00,,,0.00,,2013-02-07 04:41:00,
2013-02-06 19:53:00,1.0,-2.0,-100.00,NNE,20,0.0,0.0,86,0.00,,,0.00,,2013-02-07 04:53:00,
2013-02-06 20:01:00,1.0,-2.0,-100.00,NNE,20,0.0,0.0,86,0.00,,,0.00,,2013-02-07 05:01:00,
2013-02-06 20:11:00,1.0,-2.0,-100.00,NNE,20,0.0,0.0,86,0.00,,,0.00,,2013-02-07 05:11:00,
2013-02-06 20:21:00,1.0,-2.0,-100.00,North,5,1.0,1.0,86,0.00,,,0.00,,2013-02-07 05:21:00,
2013-02-06 20:32:00,1.0,-2.0,-100.00,North,5,1.0,1.0,86,0.00,,,0.00,,2013-02-07 05:32:00,
2013-02-06 20:42:00,1.0,-2.0,-100.00,North,5,1.0,1.0,86,0.00,,,0.00,,2013-02-07 05:42:00,
2013-02-06 20:52:00,1.0,-2.0,-100.00,North,10,1.0,1.0,86,0.00,,,0.00,,2013-02-07 05:52:00,
2013-02-06 21:02:00,1.0,-2.0,-100.00,North,10,1.0,1.0,86,0.00,,,0.00,,2013-02-07 06:02:00,
2013-02-06 21:11:00,1.0,-2.0,-100.00,North,10,1.0,1.0,86,0.00,,,0.00,,2013-02-07 06:11:00,
2013-02-06 21:52:00,1.0,-3.0,-100.00,SSE,165,1.0,1.0,85,0.00,,,0.00,,2013-02-07 06:52:00,
2013-02-06 22:01:00,1.0,-3.0,-100.00,SSE,165,1.0,1.0,85,0.00,,,0.00,,2013-02-07 07:01:00,
2013-02-06 22:11:00,1.0,-3.0,-100.00,SSE,165,1.0,1.0,85,0.00,,,0.00,,2013-02-07 07:11:00,
2013-02-06 22:21:00,0.0,-3.0,-100.00,West,265,1.0,2.0,85,0.00,,,0.00,,2013-02-07 07:21:00,
2013-02-06 22:31:00,0.0,-3.0,-100.00,West,265,1.0,2.0,85,0.00,,,0.00,,2013-02-07 07:31:00,
2013-02-06 22:41:00,0.0,-3.0,-100.00,West,265,1.0,2.0,85,0.00,,,0.00,,2013-02-07 07:41:00,
2013-02-06 22:52:00,1.0,-2.0,-100.00,South,185,1.0,2.0,85,0.00,,,0.00,,2013-02-07 07:52:00,
2013-02-06 23:01:00,1.0,-2.0,-100.00,South,185,1.0,2.0,85,0.00,,,0.00,,2013-02-07 08:01:00,
2013-02-06 23:11:00,1.0,-2.0,-100.00,South,185,1.0,2.0,85,0.00,,,0.00,,2013-02-07 08:11:00,
2013-02-06 23:21:00,1.0,-3.0,-100.00,SSE,155,1.0,2.0,85,0.00,,,0.00,,2013-02-07 08:21:00,
2013-02-06 23:32:00,1.0,-3.0,-100.00,SSE,155,1.0,2.0,85,0.00,,,0.00,,2013-02-07 08:32:00,
2013-02-06 23:42:00,1.0,-3.0,-100.00,SSE,155,1.0,2.0,85,0.00,,,0.00,,2013-02-07 08:42:00,
2013-02-06 23:52:00,0.0,-3.0,-100.00,WNW,300,0.0,1.0,85,0.00,,,0.00,,2013-02-07 08:52:00,